createdAt,value
2019-01-21T00:00:01.145Z,100.00
2019-01-21T00:02:34.124Z,100.00
2019-01-21T00:05:06.366Z,100.00
2019-01-21T00:07:40.020Z,100.00
2019-01-21T00:10:12.170Z,100.00
2019-01-21T00:12:44.030Z,100.00
2019-01-21T00:15:18.382Z,100.00
2019-01-21T00:17:49.689Z,100.00
2019-01-21T00:20:23.194Z,100.00
2019-01-21T00:22:57.211Z,100.00
2019-01-21T00:25:30.196Z,100.00
2019-01-21T00:28:02.351Z,100.00
2019-01-21T00:30:37.776Z,100.00
2019-01-21T00:33:10.359Z,100.00
2019-01-21T00:35:41.643Z,100.00
2019-01-21T00:38:15.305Z,100.00
2019-01-21T00:40:49.237Z,100.00
2019-01-21T00:43:22.268Z,100.00
2019-01-21T00:45:54.203Z,100.00
2019-01-21T00:48:26.173Z,100.00
2019-01-21T00:50:59.133Z,100.00
2019-01-21T00:53:34.885Z,100.00
2019-01-21T00:56:07.183Z,100.00
2019-01-21T00:58:38.458Z,100.00
2019-01-21T01:01:10.608Z,100.00
2019-01-21T01:03:42.234Z,100.00
2019-01-21T01:06:15.244Z,100.00
2019-01-21T01:08:47.299Z,100.00
2019-01-21T01:11:23.917Z,100.00
2019-01-21T01:13:56.048Z,100.00
2019-01-21T01:16:27.308Z,100.00
2019-01-21T01:19:00.544Z,100.00
2019-01-21T01:21:34.244Z,100.00
2019-01-21T01:24:09.878Z,100.00
2019-01-21T01:26:41.449Z,100.00
2019-01-21T01:29:14.515Z,100.00
2019-01-21T01:31:46.519Z,100.00
2019-01-21T01:34:18.309Z,100.00
2019-01-21T01:36:49.568Z,100.00
2019-01-21T01:39:25.125Z,100.00
2019-01-21T01:41:57.635Z,100.00
2019-01-21T01:44:30.507Z,100.00
2019-01-21T01:47:02.296Z,100.00
2019-01-21T01:49:35.665Z,100.00
2019-01-21T01:52:08.545Z,100.00
2019-01-21T01:54:40.616Z,100.00
2019-01-21T01:57:12.499Z,100.00
2019-01-21T01:59:45.654Z,100.00
2019-01-21T02:02:19.499Z,100.00
2019-01-21T02:04:54.768Z,100.00
2019-01-21T02:07:27.704Z,100.00
2019-01-21T02:10:03.235Z,100.00
2019-01-21T02:12:37.608Z,100.00
2019-01-21T02:15:11.223Z,100.00
2019-01-21T02:17:51.836Z,100.00
2019-01-21T02:20:20.637Z,100.00
2019-01-21T02:22:55.270Z,100.00
2019-01-21T02:25:44.002Z,100.00
2019-01-21T02:28:27.420Z,100.00
2019-01-21T02:31:37.700Z,100.00
2019-01-21T02:34:50.231Z,100.00
2019-01-21T02:37:57.006Z,100.00
2019-01-21T02:40:45.757Z,100.00
2019-01-21T02:43:58.245Z,100.00
2019-01-21T02:46:58.909Z,100.00
2019-01-21T02:50:15.321Z,100.00
2019-01-21T02:53:19.940Z,100.00
2019-01-21T02:56:35.839Z,100.00
2019-01-21T02:59:22.564Z,100.00
2019-01-21T03:02:53.489Z,100.00
2019-01-21T03:06:00.374Z,100.00
2019-01-21T03:09:14.557Z,100.00
2019-01-21T03:12:27.785Z,100.00
2019-01-21T03:15:30.762Z,100.00
2019-01-21T03:18:48.831Z,100.00
2019-01-21T03:22:16.273Z,100.00
2019-01-21T03:25:09.410Z,100.00
2019-01-21T03:28:26.803Z,100.00
2019-01-21T03:31:35.877Z,100.00
2019-01-21T03:34:32.405Z,100.00
2019-01-21T03:37:36.915Z,100.00
2019-01-21T03:40:42.207Z,100.00
2019-01-21T03:43:55.016Z,100.00
2019-01-21T03:47:04.096Z,100.00
2019-01-21T03:50:04.994Z,100.00
2019-01-21T03:53:18.238Z,100.00
2019-01-21T03:55:55.078Z,100.00
2019-01-21T03:58:53.445Z,100.00
2019-01-21T04:01:53.095Z,100.00
2019-01-21T04:04:58.661Z,100.00
2019-01-21T04:07:43.069Z,100.00
2019-01-21T04:10:51.400Z,100.00
2019-01-21T04:13:55.127Z,100.00
2019-01-21T04:17:13.299Z,100.00
2019-01-21T04:20:36.621Z,100.00
2019-01-21T04:23:53.129Z,100.00
2019-01-21T04:26:55.118Z,100.00
2019-01-21T04:29:59.454Z,100.00
2019-01-21T04:33:08.208Z,100.00
2019-01-21T04:35:58.584Z,100.00
2019-01-21T04:39:00.080Z,100.00
2019-01-21T04:41:51.729Z,100.00
2019-01-21T04:44:57.077Z,100.00
2019-01-21T04:48:11.024Z,100.00
2019-01-21T04:51:38.718Z,100.00
2019-01-21T04:54:41.759Z,100.00
2019-01-21T04:57:49.990Z,100.00
2019-01-21T05:00:50.567Z,100.00
2019-01-21T05:04:01.294Z,100.00
2019-01-21T05:07:17.616Z,100.00
2019-01-21T05:10:21.602Z,100.00
2019-01-21T05:13:44.513Z,100.00
2019-01-21T05:16:43.552Z,100.00
2019-01-21T05:19:52.645Z,100.00
2019-01-21T05:22:52.978Z,100.00
2019-01-21T05:26:22.293Z,100.00
2019-01-21T05:29:24.801Z,100.00
2019-01-21T05:32:42.576Z,100.00
2019-01-21T05:36:10.329Z,100.00
2019-01-21T05:38:51.945Z,100.00
2019-01-21T05:42:12.846Z,100.00
2019-01-21T05:45:10.732Z,100.00
2019-01-21T05:48:16.118Z,100.00
2019-01-21T05:51:38.639Z,100.00
2019-01-21T05:54:51.731Z,100.00
2019-01-21T05:57:58.228Z,100.00
2019-01-21T06:00:54.996Z,100.00
2019-01-21T06:03:55.820Z,100.00
2019-01-21T06:07:01.067Z,100.00
2019-01-21T06:09:58.230Z,100.00
2019-01-21T06:13:01.784Z,100.00
2019-01-21T06:16:20.758Z,100.00
2019-01-21T06:19:25.795Z,100.00
2019-01-21T06:22:31.645Z,100.00
2019-01-21T06:25:50.580Z,100.00
2019-01-21T06:29:04.005Z,100.00
2019-01-21T06:32:14.599Z,100.00
2019-01-21T06:34:59.581Z,100.00
2019-01-21T06:38:00.736Z,100.00
2019-01-21T06:41:17.242Z,100.00
2019-01-21T06:44:24.287Z,100.00
2019-01-21T06:47:26.330Z,100.00
2019-01-21T06:51:04.164Z,100.00
2019-01-21T06:54:08.747Z,100.00
2019-01-21T06:57:31.231Z,100.00
2019-01-21T07:00:35.943Z,100.00
2019-01-21T07:03:39.587Z,100.00
2019-01-21T07:07:07.082Z,100.00
2019-01-21T07:10:17.578Z,100.00
2019-01-21T07:13:52.194Z,100.00
2019-01-21T07:17:14.365Z,100.00
2019-01-21T07:20:25.457Z,100.00
2019-01-21T07:23:38.930Z,100.00
2019-01-21T07:26:51.413Z,100.00
2019-01-21T07:30:09.797Z,100.00
2019-01-21T07:33:18.929Z,100.00
2019-01-21T07:36:47.816Z,100.00
2019-01-21T07:40:26.203Z,100.00
2019-01-21T07:43:51.420Z,100.00
2019-01-21T07:47:05.171Z,100.00
2019-01-21T07:50:20.641Z,100.00
2019-01-21T07:53:25.842Z,100.00
2019-01-21T07:56:36.395Z,100.00
2019-01-21T07:59:49.061Z,100.00
2019-01-21T08:02:40.851Z,100.00
2019-01-21T08:05:38.672Z,100.00
2019-01-21T08:09:01.750Z,100.00
2019-01-21T08:12:30.189Z,100.00
2019-01-21T08:15:20.365Z,100.00
2019-01-21T08:18:42.445Z,100.00
2019-01-21T08:22:07.618Z,100.00
2019-01-21T08:25:04.641Z,100.00
2019-01-21T08:28:14.480Z,100.00
2019-01-21T08:31:23.896Z,100.00
2019-01-21T08:34:40.018Z,100.00
2019-01-21T08:37:41.746Z,100.00
2019-01-21T08:41:06.839Z,100.00
2019-01-21T08:44:20.244Z,100.00
2019-01-21T08:47:34.516Z,100.00
2019-01-21T08:50:40.627Z,99.42
2019-01-21T08:53:39.642Z,98.54
2019-01-21T08:56:23.254Z,98.67
2019-01-21T08:59:38.730Z,98.44
2019-01-21T09:03:08.025Z,98.27
2019-01-21T09:06:09.717Z,97.82
2019-01-21T09:09:33.846Z,97.23
2019-01-21T09:12:52.555Z,97.40
2019-01-21T09:16:06.800Z,96.88
2019-01-21T09:19:12.708Z,95.96
2019-01-21T09:22:26.831Z,95.99
2019-01-21T09:25:06.997Z,93.91
2019-01-21T09:28:13.737Z,93.01
2019-01-21T09:31:18.102Z,92.94
2019-01-21T09:34:17.935Z,92.33
2019-01-21T09:37:23.458Z,92.61
2019-01-21T09:40:43.814Z,91.51
2019-01-21T09:43:40.754Z,90.76
2019-01-21T09:46:49.807Z,90.05
2019-01-21T09:49:22.025Z,89.67
2019-01-21T09:52:07.068Z,87.89
2019-01-21T09:54:41.513Z,89.08
2019-01-21T09:57:21.408Z,88.84
2019-01-21T10:00:00.974Z,88.64
2019-01-21T10:02:55.487Z,88.14
2019-01-21T10:05:30.418Z,85.98
2019-01-21T10:08:52.746Z,85.54
2019-01-21T10:12:15.627Z,86.79
2019-01-21T10:15:11.007Z,84.38
2019-01-21T10:18:14.977Z,85.01
2019-01-21T10:21:11.341Z,83.91
2019-01-21T10:24:45.173Z,85.71
2019-01-21T10:27:37.914Z,86.38
2019-01-21T10:30:42.834Z,84.38
2019-01-21T10:34:09.004Z,84.52
2019-01-21T10:37:37.040Z,84.44
2019-01-21T10:40:29.125Z,83.68
2019-01-21T10:43:45.633Z,84.49
2019-01-21T10:46:42.021Z,84.20
2019-01-21T10:49:34.993Z,80.24
2019-01-21T10:52:47.510Z,81.51
2019-01-21T10:55:55.438Z,79.29
2019-01-21T10:59:01.372Z,80.31
2019-01-21T11:02:20.020Z,77.05
2019-01-21T11:05:01.210Z,75.43
2019-01-21T11:08:31.012Z,75.51
2019-01-21T11:11:38.307Z,76.01
2019-01-21T11:14:56.074Z,73.94
2019-01-21T11:18:01.289Z,74.27
2019-01-21T11:21:12.413Z,74.40
2019-01-21T11:24:04.537Z,72.20
2019-01-21T11:27:33.226Z,74.35
2019-01-21T11:31:07.905Z,71.68
2019-01-21T11:34:15.302Z,71.54
2019-01-21T11:37:31.388Z,72.24
2019-01-21T11:40:53.293Z,72.29
2019-01-21T11:44:13.641Z,72.69
2019-01-21T11:47:23.081Z,71.41
2019-01-21T11:50:22.612Z,72.12
2019-01-21T11:53:39.966Z,73.72
2019-01-21T11:56:27.505Z,72.18
2019-01-21T11:59:30.256Z,72.32
2019-01-21T12:02:54.557Z,71.84
2019-01-21T12:05:42.524Z,71.31
2019-01-21T12:08:47.741Z,72.25
2019-01-21T12:11:59.430Z,70.37
2019-01-21T12:15:00.233Z,71.19
2019-01-21T12:17:44.392Z,70.64
2019-01-21T12:20:43.023Z,69.86
2019-01-21T12:23:44.439Z,69.74
2019-01-21T12:27:11.999Z,69.95
2019-01-21T12:30:27.376Z,70.88
2019-01-21T12:33:14.855Z,71.08
2019-01-21T12:35:58.239Z,71.97
2019-01-21T12:39:00.627Z,71.40
2019-01-21T12:41:49.485Z,70.86
2019-01-21T12:44:57.681Z,71.36
2019-01-21T12:48:02.016Z,71.29
2019-01-21T12:51:22.224Z,70.92
2019-01-21T12:54:31.263Z,71.51
2019-01-21T12:57:53.244Z,71.96
2019-01-21T13:01:03.641Z,71.12
2019-01-21T13:04:34.999Z,71.68
2019-01-21T13:07:56.139Z,70.65
2019-01-21T13:11:28.487Z,71.48
2019-01-21T13:14:32.491Z,71.53
2019-01-21T13:17:24.207Z,70.46
2019-01-21T13:20:38.168Z,70.42
2019-01-21T13:23:42.006Z,69.49
2019-01-21T13:26:50.397Z,69.72
2019-01-21T13:29:41.216Z,69.73
2019-01-21T13:32:55.863Z,70.12
2019-01-21T13:36:14.508Z,70.75
2019-01-21T13:39:18.538Z,70.22
2019-01-21T13:42:24.820Z,70.13
2019-01-21T13:45:34.366Z,67.35
2019-01-21T13:48:30.598Z,68.30
2019-01-21T13:51:27.977Z,67.46
2019-01-21T13:54:41.374Z,67.42
2019-01-21T13:57:49.999Z,68.60
2019-01-21T14:00:39.383Z,66.57
2019-01-21T14:03:47.386Z,65.92
2019-01-21T14:06:59.621Z,66.25
2019-01-21T14:10:21.587Z,65.36
2019-01-21T14:13:05.955Z,64.27
2019-01-21T14:15:51.557Z,64.18
2019-01-21T14:18:57.367Z,65.30
2019-01-21T14:22:08.797Z,66.54
2019-01-21T14:25:17.801Z,67.29
2019-01-21T14:28:26.771Z,67.86
2019-01-21T14:31:40.017Z,67.61
2019-01-21T14:34:52.534Z,67.45
2019-01-21T14:37:50.423Z,66.51
2019-01-21T14:40:31.975Z,66.70
2019-01-21T14:43:46.277Z,67.76
2019-01-21T14:46:55.150Z,67.26
2019-01-21T14:49:51.203Z,67.10
2019-01-21T14:52:53.601Z,68.38
2019-01-21T14:55:44.919Z,68.83
2019-01-21T14:58:36.607Z,68.70
2019-01-21T15:01:42.479Z,68.62
2019-01-21T15:04:33.086Z,68.36
2019-01-21T15:07:45.304Z,66.71
2019-01-21T15:10:45.701Z,67.42
2019-01-21T15:13:49.342Z,68.08
2019-01-21T15:17:02.225Z,68.62
2019-01-21T15:20:40.476Z,69.89
2019-01-21T15:23:57.973Z,72.30
2019-01-21T15:26:39.806Z,73.70
2019-01-21T15:29:31.551Z,74.98
2019-01-21T15:32:43.133Z,75.13
2019-01-21T15:35:42.156Z,75.44
2019-01-21T15:38:44.455Z,76.59
2019-01-21T15:41:49.372Z,77.08
2019-01-21T15:45:05.706Z,77.77
2019-01-21T15:48:09.495Z,78.21
2019-01-21T15:51:10.818Z,78.24
2019-01-21T15:54:10.223Z,78.62
2019-01-21T15:57:33.560Z,78.77
2019-01-21T16:00:42.993Z,79.08
2019-01-21T16:04:06.751Z,79.94
2019-01-21T16:07:01.456Z,80.19
2019-01-21T16:10:00.938Z,80.12
2019-01-21T16:12:53.506Z,80.75
2019-01-21T16:16:07.005Z,81.30
2019-01-21T16:18:56.817Z,81.50
2019-01-21T16:22:08.086Z,81.90
2019-01-21T16:25:00.249Z,82.34
2019-01-21T16:28:14.383Z,82.33
2019-01-21T16:30:57.818Z,82.37
2019-01-21T16:34:26.654Z,82.22
2019-01-21T16:37:49.416Z,82.30
2019-01-21T16:40:58.601Z,82.60
2019-01-21T16:43:31.674Z,82.84
2019-01-21T16:46:03.978Z,83.59
2019-01-21T16:48:36.678Z,84.36
2019-01-21T16:51:10.627Z,84.62
2019-01-21T16:53:45.044Z,84.96
2019-01-21T16:56:18.502Z,85.03
2019-01-21T16:58:53.858Z,85.02
2019-01-21T17:01:28.194Z,85.16
2019-01-21T17:04:01.438Z,85.26
2019-01-21T17:06:34.581Z,85.48
2019-01-21T17:09:10.473Z,85.54
2019-01-21T17:11:42.419Z,85.31
2019-01-21T17:14:14.017Z,85.25
2019-01-21T17:16:46.733Z,85.29
2019-01-21T17:19:18.084Z,85.14
2019-01-21T17:21:51.919Z,85.21
2019-01-21T17:24:25.621Z,85.14
2019-01-21T17:26:56.985Z,85.08
2019-01-21T17:29:28.240Z,84.92
2019-01-21T17:32:01.621Z,85.09
2019-01-21T17:34:33.359Z,85.24
2019-01-21T17:37:06.682Z,85.39
2019-01-21T17:39:40.807Z,85.82
2019-01-21T17:42:12.821Z,85.82
2019-01-21T17:44:45.740Z,85.80
2019-01-21T17:47:19.593Z,86.25
2019-01-21T17:49:50.890Z,86.27
2019-01-21T17:52:22.147Z,86.38
2019-01-21T17:54:55.725Z,86.96
2019-01-21T17:57:28.727Z,86.83
2019-01-21T18:00:03.358Z,86.99
2019-01-21T18:02:37.837Z,87.11
2019-01-21T18:05:10.137Z,87.25
2019-01-21T18:07:42.560Z,87.88
2019-01-21T18:10:15.088Z,88.20
2019-01-21T18:12:47.865Z,88.15
2019-01-21T18:15:20.862Z,88.30
2019-01-21T18:17:54.917Z,88.51
2019-01-21T18:20:26.974Z,88.75
2019-01-21T18:22:59.868Z,88.72
2019-01-21T18:25:34.710Z,88.93
2019-01-21T18:28:05.833Z,89.10
2019-01-21T18:30:39.930Z,89.40
2019-01-21T18:33:14.055Z,89.47
2019-01-21T18:35:48.248Z,89.80
2019-01-21T18:38:22.511Z,89.84
2019-01-21T18:40:55.172Z,89.84
2019-01-21T18:43:27.404Z,90.03
2019-01-21T18:46:01.183Z,90.12
2019-01-21T18:48:35.089Z,90.08
2019-01-21T18:51:07.152Z,90.38
2019-01-21T18:53:40.072Z,90.89
2019-01-21T18:56:13.244Z,91.09
2019-01-21T18:58:45.304Z,91.20
2019-01-21T19:01:18.965Z,91.13
2019-01-21T19:03:50.320Z,91.01
2019-01-21T19:06:24.325Z,91.12
2019-01-21T19:08:58.288Z,91.14
2019-01-21T19:11:32.461Z,91.39
2019-01-21T19:14:04.602Z,91.51
2019-01-21T19:16:37.119Z,91.75
2019-01-21T19:19:10.466Z,91.84
2019-01-21T19:21:41.991Z,92.11
2019-01-21T19:24:16.192Z,92.19
2019-01-21T19:26:50.246Z,92.31
2019-01-21T19:29:24.452Z,92.31
2019-01-21T19:31:56.381Z,92.12
2019-01-21T19:34:29.268Z,92.37
2019-01-21T19:37:02.883Z,92.78
2019-01-21T19:39:34.244Z,92.95
2019-01-21T19:42:08.384Z,92.96
2019-01-21T19:44:42.440Z,92.93
2019-01-21T19:47:15.319Z,92.95
2019-01-21T19:49:49.318Z,93.02
2019-01-21T19:52:22.353Z,93.33
2019-01-21T19:54:54.791Z,93.73
2019-01-21T19:57:26.132Z,94.08
2019-01-21T19:59:59.306Z,94.25
2019-01-21T20:02:32.004Z,94.22
2019-01-21T20:05:03.995Z,94.32
2019-01-21T20:07:35.396Z,94.48
2019-01-21T20:10:09.096Z,94.52
2019-01-21T20:12:43.462Z,94.76
2019-01-21T20:15:16.990Z,95.08
2019-01-21T20:17:48.388Z,95.49
2019-01-21T20:20:22.867Z,95.62
2019-01-21T20:22:57.588Z,95.81
2019-01-21T20:25:30.523Z,95.95
2019-01-21T20:28:02.764Z,96.03
2019-01-21T20:30:35.616Z,95.96
2019-01-21T20:33:07.718Z,95.65
2019-01-21T20:35:40.474Z,95.70
2019-01-21T20:38:14.491Z,95.83
2019-01-21T20:40:45.867Z,96.00
2019-01-21T20:43:19.485Z,96.01
2019-01-21T20:45:50.922Z,95.81
2019-01-21T20:48:23.187Z,96.10
2019-01-21T20:50:54.672Z,96.35
2019-01-21T20:53:26.766Z,96.53
2019-01-21T20:55:59.573Z,96.80
2019-01-21T20:58:32.013Z,96.95
2019-01-21T21:01:04.073Z,96.79
2019-01-21T21:03:35.669Z,96.41
2019-01-21T21:06:07.140Z,96.27
2019-01-21T21:08:38.499Z,96.42
2019-01-21T21:11:12.102Z,96.50
2019-01-21T21:13:45.698Z,96.54
2019-01-21T21:16:17.722Z,96.61
2019-01-21T21:18:49.680Z,96.43
2019-01-21T21:21:22.671Z,96.17
2019-01-21T21:23:55.699Z,96.52
2019-01-21T21:26:27.759Z,96.84
2019-01-21T21:29:00.748Z,96.86
2019-01-21T21:31:32.035Z,96.96
2019-01-21T21:34:03.289Z,96.71
2019-01-21T21:36:36.856Z,96.68
2019-01-21T21:39:09.505Z,96.65
2019-01-21T21:41:41.802Z,96.65
2019-01-21T21:44:15.871Z,96.45
2019-01-21T21:46:49.833Z,96.43
2019-01-21T21:49:24.779Z,96.45
2019-01-21T21:51:58.995Z,96.45
2019-01-21T21:54:31.899Z,96.70
2019-01-21T21:57:04.034Z,96.66
2019-01-21T21:59:36.820Z,96.89
2019-01-21T22:02:08.097Z,97.21
2019-01-21T22:04:41.758Z,97.35
2019-01-21T22:07:15.798Z,97.58
2019-01-21T22:09:47.075Z,97.70
2019-01-21T22:12:18.367Z,98.01
2019-01-21T22:14:51.947Z,98.24
2019-01-21T22:17:25.934Z,98.31
2019-01-21T22:19:59.813Z,98.41
2019-01-21T22:22:34.807Z,98.59
2019-01-21T22:25:08.315Z,98.41
2019-01-21T22:27:41.947Z,98.08
2019-01-21T22:30:21.233Z,98.52
2019-01-21T22:32:52.959Z,99.03
2019-01-21T22:35:27.047Z,99.51
2019-01-21T22:37:58.310Z,99.67
2019-01-21T22:40:29.575Z,99.67
2019-01-21T22:43:03.028Z,99.62
2019-01-21T22:45:34.331Z,99.60
2019-01-21T22:48:07.226Z,99.30
2019-01-21T22:50:40.073Z,99.13
2019-01-21T22:53:13.051Z,98.95
2019-01-21T22:55:48.649Z,98.83
2019-01-21T22:58:21.092Z,98.86
2019-01-21T23:01:04.370Z,98.97
2019-01-21T23:03:38.015Z,99.11
2019-01-21T23:06:12.016Z,99.00
2019-01-21T23:08:46.083Z,99.10
2019-01-21T23:11:21.142Z,99.24
2019-01-21T23:13:54.428Z,99.30
2019-01-21T23:16:29.885Z,99.17
2019-01-21T23:19:02.107Z,99.10
2019-01-21T23:21:36.147Z,98.91
2019-01-21T23:24:10.280Z,99.33
2019-01-21T23:26:44.081Z,99.64
2019-01-21T23:29:16.284Z,99.81
2019-01-21T23:31:49.165Z,99.91
2019-01-21T23:34:20.462Z,99.99
2019-01-21T23:36:54.327Z,100.00
2019-01-21T23:39:28.331Z,100.00
2019-01-21T23:42:02.224Z,100.00
2019-01-21T23:44:38.054Z,100.00
2019-01-21T23:47:10.097Z,100.00
2019-01-21T23:49:41.367Z,100.00
2019-01-21T23:52:14.605Z,100.00
2019-01-21T23:54:48.426Z,100.00
2019-01-21T23:57:22.419Z,100.00
2019-01-21T23:59:56.438Z,100.00
